Time;durP1;ratioP1;P1;durP2;ratioP2;P2;SDS_P1;SDS_P2;PMS_P1;PMS_P2;Temp;Humidity;BMP_temperature;BMP_pressure;BME280_temperature;BME280_humidity;BME280_pressure;Samples;Min_cycle;Max_cycle;Signal;HPM_P1;HPM_P2
2022/08/02 00:00:45;;;;;;;6.40;1.60;;;;;;;16.48;64.77;101835.31;5059160;28;20130;-47
2022/08/02 00:03:10;;;;;;;4.35;1.50;;;;;;;16.47;66.13;101835.47;5055107;28;20032;-48
2022/08/02 00:05:35;;;;;;;4.57;1.30;;;;;;;16.46;66.34;101836.47;5054122;28;20028;-48
2022/08/02 00:08:01;;;;;;;6.72;1.83;;;;;;;16.50;66.37;101844.06;5055568;28;20047;-47
2022/08/02 00:10:26;;;;;;;6.60;1.60;;;;;;;16.48;67.60;101838.00;5055069;28;20060;-51
2022/08/02 00:12:52;;;;;;;3.22;1.30;;;;;;;16.48;66.35;101834.44;5055906;28;20036;-49
2022/08/02 00:15:17;;;;;;;5.60;1.30;;;;;;;16.46;68.26;101837.31;5055480;28;20017;-47
2022/08/02 00:17:43;;;;;;;6.32;1.40;;;;;;;16.44;68.08;101831.25;5055091;28;20106;-48
2022/08/02 00:20:10;;;;;;;2.90;1.10;;;;;;;16.36;69.02;101828.59;5054741;28;20376;-48
2022/08/02 00:22:36;;;;;;;2.00;1.13;;;;;;;16.33;68.76;101832.50;5054770;28;20213;-47
2022/08/02 00:25:01;;;;;;;3.38;1.20;;;;;;;16.32;69.01;101833.50;5056027;28;20179;-47
2022/08/02 00:27:27;;;;;;;3.67;1.60;;;;;;;16.32;68.76;101832.69;5059470;28;20035;-47
2022/08/02 00:29:52;;;;;;;2.90;1.30;;;;;;;16.32;68.73;101838.91;5057889;28;20036;-47
2022/08/02 00:32:17;;;;;;;5.53;1.70;;;;;;;16.33;69.36;101831.69;5055565;28;20027;-46
2022/08/02 00:34:42;;;;;;;8.15;1.50;;;;;;;16.31;66.42;101828.28;5055343;28;20027;-51
2022/08/02 00:37:08;;;;;;;11.07;1.73;;;;;;;16.32;67.08;101832.69;5052959;28;20016;-50
2022/08/02 00:39:33;;;;;;;4.93;1.45;;;;;;;16.29;66.30;101831.16;5055716;28;20020;-51
2022/08/02 00:41:58;;;;;;;3.78;1.75;;;;;;;16.30;68.58;101823.94;5055725;28;20028;-50
2022/08/02 00:44:24;;;;;;;4.07;1.48;;;;;;;16.25;67.12;101821.75;5053898;28;20625;-47
2022/08/02 00:46:49;;;;;;;5.97;1.60;;;;;;;16.20;67.09;101811.47;5054331;28;20112;-50
2022/08/02 00:49:15;;;;;;;7.82;1.58;;;;;;;16.20;66.77;101816.03;5054922;28;20032;-50
2022/08/02 00:51:40;;;;;;;4.40;1.75;;;;;;;16.23;66.65;101813.00;5061499;28;20032;-49
2022/08/02 00:54:07;;;;;;;6.18;1.58;;;;;;;16.27;68.08;101817.03;5054184;28;20040;-50
2022/08/02 00:56:33;;;;;;;7.55;1.63;;;;;;;16.20;68.26;101806.09;5064758;28;20020;-50
2022/08/02 00:58:58;;;;;;;6.68;1.80;;;;;;;16.16;67.75;101807.47;5054685;28;20044;-50
2022/08/02 01:01:39;;;;;;;4.47;1.83;;;;;;;16.15;68.05;101813.03;5058408;28;20044;-47
2022/08/02 01:04:10;;;;;;;6.97;1.70;;;;;;;16.11;69.18;101806.31;5058185;28;20020;-47
2022/08/02 01:06:37;;;;;;;7.90;2.00;;;;;;;16.09;68.60;101808.31;5058042;28;20437;-49
2022/08/02 01:09:04;;;;;;;5.75;1.90;;;;;;;16.10;68.24;101813.53;5056205;28;20070;-48
2022/08/02 01:11:29;;;;;;;6.65;1.90;;;;;;;16.05;69.11;101807.84;5059649;28;20173;-48
2022/08/02 01:14:03;;;;;;;3.28;1.67;;;;;;;16.01;70.12;101807.34;5057675;28;20024;-49
2022/08/02 01:16:32;;;;;;;5.82;2.05;;;;;;;15.99;70.27;101800.47;5063712;28;20032;-48
2022/08/02 01:19:05;;;;;;;8.88;2.60;;;;;;;15.95;69.97;101801.81;5057861;28;20491;-47
2022/08/02 01:21:48;;;;;;;4.60;2.17;;;;;;;15.95;69.17;101808.03;5057160;28;20482;-47
2022/08/02 01:24:35;;;;;;;5.32;2.17;;;;;;;15.93;69.80;101814.63;5058148;28;20032;-51
2022/08/02 01:27:19;;;;;;;6.80;2.47;;;;;;;15.94;70.72;101805.53;5058508;28;20032;-47
2022/08/02 01:29:50;;;;;;;11.20;2.30;;;;;;;15.94;68.47;101810.94;5057202;28;20033;-51
2022/08/02 01:32:21;;;;;;;8.23;2.22;;;;;;;16.01;69.06;101806.50;5059023;28;20016;-49
2022/08/02 01:34:53;;;;;;;8.88;2.22;;;;;;;16.02;69.98;101810.88;5061960;28;20107;-46
2022/08/02 01:37:50;;;;;;;5.00;2.17;;;;;;;16.04;69.15;101800.78;5057682;28;20028;-47
2022/08/02 01:40:22;;;;;;;7.40;2.38;;;;;;;15.99;70.10;101790.53;5052990;28;20127;-47
2022/08/02 01:42:51;;;;;;;8.38;2.20;;;;;;;15.96;70.63;101796.25;5058801;28;20501;-49
2022/08/02 01:45:18;;;;;;;4.40;2.13;;;;;;;15.93;71.13;101790.38;5056998;28;20450;-50
2022/08/02 01:47:45;;;;;;;7.20;2.20;;;;;;;15.89;70.40;101787.19;5057034;28;20208;-49
2022/08/02 01:50:15;;;;;;;7.43;2.15;;;;;;;15.80;70.56;101781.00;5062243;28;20103;-50
2022/08/02 01:52:46;;;;;;;5.55;2.20;;;;;;;15.74;71.68;101778.94;5058468;28;20534;-47
2022/08/02 01:55:20;;;;;;;5.78;2.00;;;;;;;15.81;72.30;101777.25;5057679;28;20054;-50
2022/08/02 01:57:52;;;;;;;6.80;2.33;;;;;;;15.77;71.32;101781.31;5058386;28;20020;-51
2022/08/02 02:00:21;;;;;;;5.53;2.30;;;;;;;15.74;72.06;101784.31;5059980;28;20533;-49
2022/08/02 02:02:51;;;;;;;7.38;2.63;;;;;;;15.71;72.03;101784.66;5057913;28;20337;-49
2022/08/02 02:05:19;;;;;;;5.97;2.50;;;;;;;15.70;73.35;101782.16;5062659;28;20036;-49
2022/08/02 02:07:49;;;;;;;6.82;2.40;;;;;;;15.67;73.87;101784.19;5060908;28;20073;-50
2022/08/02 02:10:17;;;;;;;6.22;2.55;;;;;;;15.69;73.41;101772.41;5057118;28;20448;-50
2022/08/02 02:12:46;;;;;;;7.13;2.97;;;;;;;15.68;72.82;101771.53;5057396;28;20229;-50
2022/08/02 02:15:12;;;;;;;14.32;3.13;;;;;;;15.64;73.18;101771.03;5056465;28;20092;-50
2022/08/02 02:17:42;;;;;;;8.13;2.88;;;;;;;15.61;73.23;101766.03;5055837;28;20174;-49
2022/08/02 02:20:13;;;;;;;5.50;2.40;;;;;;;15.61;73.28;101755.25;5041340;28;20397;-49
2022/08/02 02:22:38;;;;;;;4.55;2.40;;;;;;;15.59;73.25;101751.88;5050270;28;20457;-50
2022/08/02 02:25:05;;;;;;;8.18;2.60;;;;;;;15.57;74.00;101756.59;5056466;28;20120;-50
2022/08/02 02:27:31;;;;;;;7.45;2.70;;;;;;;15.59;74.42;101746.50;5061000;28;20061;-49
2022/08/02 02:29:58;;;;;;;8.18;2.22;;;;;;;15.59;74.16;101748.34;5055360;28;20495;-51
2022/08/02 02:32:27;;;;;;;6.25;2.47;;;;;;;15.52;74.35;101739.28;5056904;28;20220;-48
2022/08/02 02:34:54;;;;;;;7.00;2.58;;;;;;;15.53;74.59;101746.34;5061870;28;20103;-48
2022/08/02 02:37:22;;;;;;;8.55;2.58;;;;;;;15.46;74.38;101740.78;5057855;28;20482;-48
2022/08/02 02:39:53;;;;;;;5.05;2.22;;;;;;;15.48;74.90;101744.19;5060366;28;20104;-50
2022/08/02 02:42:24;;;;;;;5.93;2.25;;;;;;;15.41;75.51;101745.84;5047369;28;20304;-50
2022/08/02 02:44:50;;;;;;;;;;;;;;;15.48;73.53;101750.41;5056177;28;20035;-48
2022/08/02 02:47:18;;;;;;;5.20;2.28;;;;;;;15.40;76.96;101753.09;5057230;28;19912;-50
2022/08/02 02:49:47;;;;;;;6.50;2.38;;;;;;;15.40;76.56;101754.97;5057265;28;20036;-49
2022/08/02 02:52:15;;;;;;;10.10;2.92;;;;;;;15.38;76.82;101744.34;5054386;28;20120;-50
2022/08/02 02:54:42;;;;;;;8.80;2.50;;;;;;;15.38;76.42;101744.34;5056544;28;20209;-50
2022/08/02 02:57:09;;;;;;;4.75;2.40;;;;;;;15.33;75.14;101749.41;5058728;28;20036;-49
2022/08/02 02:59:35;;;;;;;6.32;2.40;;;;;;;15.30;75.83;101749.75;5055023;28;20228;-49
2022/08/02 03:02:02;;;;;;;8.35;2.60;;;;;;;15.27;77.11;101734.78;5057320;28;20531;-48
2022/08/02 03:04:28;;;;;;;5.75;2.28;;;;;;;15.28;77.91;101733.75;5055808;28;20036;-49
2022/08/02 03:06:53;;;;;;;7.30;2.60;;;;;;;15.27;77.18;101729.41;5056402;28;20039;-46
2022/08/02 03:09:19;;;;;;;4.32;2.33;;;;;;;15.30;77.07;101734.44;5056237;28;20029;-48
2022/08/02 03:11:45;;;;;;;7.57;2.65;;;;;;;15.28;78.38;101736.47;5057057;28;20074;-47
2022/08/02 03:14:12;;;;;;;10.93;3.10;;;;;;;15.22;81.42;101745.22;5054650;28;20033;-48
2022/08/02 03:16:45;;;;;;;10.68;3.03;;;;;;;15.20;81.57;101747.22;5056137;28;20312;-47
2022/08/02 03:19:11;;;;;;;10.00;3.05;;;;;;;15.21;86.45;101743.53;5055556;28;20070;-47
2022/08/02 03:21:37;;;;;;;14.15;3.63;;;;;;;15.18;86.71;101738.50;5055316;28;20119;-49
2022/08/02 03:24:02;;;;;;;15.45;3.15;;;;;;;15.14;84.64;101747.06;5055813;28;20108;-49
2022/08/02 03:26:28;;;;;;;9.30;3.08;;;;;;;15.17;83.81;101741.34;5062558;28;20020;-49
2022/08/02 03:28:53;;;;;;;13.48;3.40;;;;;;;15.16;83.78;101740.50;5060742;28;20127;-48
2022/08/02 03:31:18;;;;;;;13.40;3.20;;;;;;;15.17;86.51;101746.72;5053989;28;20595;-50
2022/08/02 03:33:44;;;;;;;10.30;3.42;;;;;;;15.16;82.52;101737.81;5055318;28;20507;-51
2022/08/02 03:36:13;;;;;;;12.73;3.40;;;;;;;15.15;84.46;101736.13;5057711;28;20048;-49
2022/08/02 03:38:41;;;;;;;18.17;3.88;;;;;;;15.16;86.15;101732.44;5058336;28;20033;-48
2022/08/02 03:41:09;;;;;;;10.00;3.60;;;;;;;15.18;86.70;101730.41;5060660;28;20016;-51
2022/08/02 03:43:37;;;;;;;9.07;3.08;;;;;;;15.16;83.83;101720.84;5055751;28;20066;-48
2022/08/02 03:46:04;;;;;;;6.70;3.13;;;;;;;15.10;81.70;101719.66;5061123;28;20020;-47
2022/08/02 03:48:30;;;;;;;10.18;3.40;;;;;;;15.10;85.79;101709.75;5059279;28;20107;-47
2022/08/02 03:50:56;;;;;;;8.93;3.33;;;;;;;15.05;84.61;101720.19;5052536;28;20021;-51
2022/08/02 03:53:22;;;;;;;8.95;3.53;;;;;;;15.00;83.28;101716.31;5055937;28;20244;-47
2022/08/02 03:55:48;;;;;;;11.32;3.35;;;;;;;15.02;85.12;101711.59;5056311;28;20024;-47
2022/08/02 03:58:18;;;;;;;10.48;3.22;;;;;;;14.96;82.61;101714.97;5067235;28;20028;-48
2022/08/02 04:00:44;;;;;;;7.90;2.77;;;;;;;14.97;83.62;101712.13;5061867;28;20429;-48
2022/08/02 04:03:09;;;;;;;10.73;3.20;;;;;;;14.97;83.56;101711.25;5052993;28;20649;-47
2022/08/02 04:05:34;;;;;;;6.30;2.90;;;;;;;14.94;82.94;101712.44;5055415;28;20495;-51
2022/08/02 04:07:59;;;;;;;9.57;2.88;;;;;;;14.93;83.27;101705.38;5058887;28;20032;-48
2022/08/02 04:10:25;;;;;;;7.18;2.97;;;;;;;14.97;84.57;101700.50;5052704;28;20009;-50
2022/08/02 04:12:51;;;;;;;13.27;3.42;;;;;;;14.94;82.92;101695.47;5060072;28;20020;-50
2022/08/02 04:15:17;;;;;;;8.80;3.45;;;;;;;14.99;83.75;101699.34;5055200;28;20372;-50
2022/08/02 04:17:48;;;;;;;14.02;3.92;;;;;;;14.97;84.84;101698.66;5055425;28;20470;-47
2022/08/02 04:20:19;;;;;;;9.50;3.45;;;;;;;15.02;83.64;101706.22;5052466;28;20067;-53
2022/08/02 04:22:50;;;;;;;5.82;3.22;;;;;;;15.01;85.06;101708.06;5037183;28;20292;-48
2022/08/02 04:25:17;;;;;;;7.85;3.40;;;;;;;15.04;84.63;101705.03;5055616;28;20027;-51
2022/08/02 04:27:44;;;;;;;7.88;3.05;;;;;;;15.08;85.49;101706.38;5055981;28;20021;-46
2022/08/02 04:30:10;;;;;;;7.85;3.50;;;;;;;15.15;87.44;101711.09;5060962;28;20039;-47
2022/08/02 04:32:36;;;;;;;6.70;3.30;;;;;;;15.16;87.20;101707.41;5055768;28;20029;-49
2022/08/02 04:35:01;;;;;;;10.65;3.38;;;;;;;15.15;85.15;101717.28;5059197;28;20127;-52
2022/08/02 04:37:27;;;;;;;8.00;3.30;;;;;;;15.21;89.14;101724.69;5057893;28;20028;-50
2022/08/02 04:39:52;;;;;;;9.20;3.45;;;;;;;15.19;86.88;101726.72;5058131;28;20031;-52
2022/08/02 04:42:25;;;;;;;9.63;3.50;;;;;;;15.23;88.21;101717.28;5070735;28;20020;-51
2022/08/02 04:44:51;;;;;;;8.70;3.20;;;;;;;15.26;88.01;101708.06;5058322;28;20044;-51
2022/08/02 04:47:17;;;;;;;8.02;3.58;;;;;;;15.28;85.86;101711.41;5059437;28;20043;-49
2022/08/02 04:49:43;;;;;;;7.47;3.20;;;;;;;15.28;86.83;101709.53;5059193;28;20327;-51
2022/08/02 04:52:08;;;;;;;8.05;3.63;;;;;;;15.32;87.32;101699.28;5058525;28;20393;-52
2022/08/02 04:54:33;;;;;;;8.75;3.72;;;;;;;15.34;87.19;101709.88;5058718;28;20481;-52
2022/08/02 04:56:59;;;;;;;9.25;3.42;;;;;;;15.33;87.61;101700.13;5058779;28;20035;-51
2022/08/02 04:59:24;;;;;;;11.23;3.85;;;;;;;15.31;86.73;101703.00;5051873;28;20509;-53
2022/08/02 05:01:49;;;;;;;10.95;4.20;;;;;;;15.31;86.27;101703.00;5059116;28;20116;-52
2022/08/02 05:04:15;;;;;;;8.20;4.10;;;;;;;15.29;85.79;101694.22;5044943;28;20445;-52
2022/08/02 05:06:40;;;;;;;8.95;3.83;;;;;;;15.30;88.52;101696.75;5058908;28;20031;-49
2022/08/02 05:09:05;;;;;;;9.07;4.18;;;;;;;15.35;87.27;101700.78;5058556;28;20021;-49
2022/08/02 05:11:31;;;;;;;10.43;3.95;;;;;;;15.36;86.97;101702.47;5059477;28;20594;-53
2022/08/02 05:13:56;;;;;;;13.98;4.38;;;;;;;15.36;87.87;101703.31;5057999;28;20048;-47
2022/08/02 05:16:22;;;;;;;13.00;4.18;;;;;;;15.38;87.04;101693.22;5057559;28;20510;-50
2022/08/02 05:18:47;;;;;;;8.80;4.00;;;;;;;15.43;86.92;101698.09;5058719;28;20028;-52
2022/08/02 05:21:13;;;;;;;11.27;4.15;;;;;;;15.50;87.91;101692.84;5057500;28;20502;-52
2022/08/02 05:23:38;;;;;;;11.00;4.38;;;;;;;15.51;88.14;101698.03;5058165;28;20503;-51
2022/08/02 05:26:03;;;;;;;10.40;4.40;;;;;;;15.55;87.90;101694.00;5058992;28;20036;-51
2022/08/02 05:28:29;;;;;;;9.38;4.80;;;;;;;15.58;88.37;101695.50;5062438;28;20417;-52
2022/08/02 05:30:54;;;;;;;10.85;4.68;;;;;;;15.57;88.06;101680.38;5054830;28;20113;-51
2022/08/02 05:33:19;;;;;;;8.93;4.68;;;;;;;15.62;88.49;101678.00;5052862;28;20039;-51
2022/08/02 05:35:45;;;;;;;9.23;4.93;;;;;;;15.66;90.06;101687.41;5055961;28;20396;-52
2022/08/02 05:38:10;;;;;;;9.55;4.72;;;;;;;15.69;88.75;101687.06;5052788;28;20058;-49
2022/08/02 05:40:36;;;;;;;11.05;5.20;;;;;;;15.71;89.10;101679.63;5054098;28;20530;-47
2022/08/02 05:43:01;;;;;;;13.95;5.38;;;;;;;15.81;89.15;101676.78;5056608;28;20032;-49
2022/08/02 05:45:27;;;;;;;10.38;5.07;;;;;;;15.83;89.72;101678.28;5053918;28;20360;-51
2022/08/02 05:47:52;;;;;;;11.68;5.28;;;;;;;15.88;90.45;101676.91;5053182;28;20244;-49
2022/08/02 05:50:18;;;;;;;9.43;5.60;;;;;;;15.92;90.55;101684.47;5053961;28;20028;-53
2022/08/02 05:52:47;;;;;;;10.55;5.68;;;;;;;15.97;90.86;101694.69;5055791;28;20136;-53
2022/08/02 05:55:32;;;;;;;12.52;5.97;;;;;;;16.00;91.36;101703.31;5057429;28;20035;-49
2022/08/02 05:58:32;;;;;;;14.30;6.22;;;;;;;16.02;91.83;101697.72;5054429;28;20036;-51
2022/08/02 06:01:01;;;;;;;18.70;6.88;;;;;;;16.21;92.10;101709.94;5034063;28;20423;-52
2022/08/02 06:03:43;;;;;;;11.15;5.95;;;;;;;16.36;91.40;101705.44;5040119;28;20260;-52
2022/08/02 06:06:10;;;;;;;;;;;;;;;16.48;90.94;101707.72;5054914;28;20646;-51
2022/08/02 06:08:54;;;;;;;12.85;6.70;;;;;;;16.54;91.39;101705.13;5054498;28;20632;-50
2022/08/02 06:11:28;;;;;;;17.05;7.00;;;;;;;16.62;92.23;101706.13;5055172;28;20101;-52
2022/08/02 06:13:54;;;;;;;15.40;6.95;;;;;;;16.69;93.08;101707.91;5056966;28;20408;-48
2022/08/02 06:16:20;;;;;;;11.60;6.97;;;;;;;16.71;93.19;101705.84;5050544;28;20506;-48
2022/08/02 06:18:47;;;;;;;12.27;7.43;;;;;;;16.74;94.55;101705.50;5050194;28;20024;-48
2022/08/02 06:21:13;;;;;;;9.90;7.07;;;;;;;16.81;94.61;101707.50;5064948;28;20026;-52
2022/08/02 06:23:41;;;;;;;10.70;7.30;;;;;;;16.87;95.35;101713.03;5056603;28;20439;-50
2022/08/02 06:26:10;;;;;;;13.50;7.15;;;;;;;16.98;95.63;101709.06;5056428;28;20079;-48
2022/08/02 06:28:39;;;;;;;15.35;7.75;;;;;;;17.02;95.54;101704.94;5056070;28;20035;-50
2022/08/02 06:31:05;;;;;;;15.40;8.02;;;;;;;17.09;96.33;101703.22;5056127;28;20020;-52
2022/08/02 06:33:31;;;;;;;15.15;7.47;;;;;;;17.23;96.45;101698.03;5054054;28;20028;-48
2022/08/02 06:36:17;;;;;;;11.82;7.68;;;;;;;17.36;96.06;101700.09;5050268;28;20031;-50
2022/08/02 06:38:54;;;;;;;14.10;8.13;;;;;;;17.50;95.80;101699.25;5053951;28;20255;-48
2022/08/02 06:41:21;;;;;;;13.95;7.97;;;;;;;17.61;96.32;101695.25;5056071;28;20027;-48
2022/08/02 06:43:52;;;;;;;14.98;7.78;;;;;;;17.70;96.12;101694.09;5043681;28;20261;-53
2022/08/02 06:46:18;;;;;;;13.73;8.25;;;;;;;17.80;95.97;101702.75;5054248;28;20081;-51
2022/08/02 06:48:43;;;;;;;16.35;8.15;;;;;;;18.01;95.96;101710.16;5062967;28;20032;-51
2022/08/02 06:51:09;;;;;;;12.60;8.00;;;;;;;18.19;95.51;101698.91;5055944;28;20046;-47
2022/08/02 06:53:34;;;;;;;11.77;7.75;;;;;;;18.39;96.43;101701.84;5056978;28;20027;-48
2022/08/02 06:55:59;;;;;;;12.02;7.85;;;;;;;18.50;95.11;101700.50;5057155;28;20378;-52
2022/08/02 06:58:24;;;;;;;12.57;7.53;;;;;;;18.64;96.65;101687.94;5053271;28;20523;-51
2022/08/02 07:00:50;;;;;;;17.60;8.05;;;;;;;18.81;94.63;101688.50;5050323;28;20036;-52
2022/08/02 07:03:16;;;;;;;16.02;7.25;;;;;;;18.92;95.48;101690.69;5056641;28;20193;-51
2022/08/02 07:05:47;;;;;;;13.23;8.23;;;;;;;19.01;93.81;101692.25;5055839;28;20028;-51
2022/08/02 07:08:13;;;;;;;18.00;7.97;;;;;;;19.13;93.21;101684.41;5056472;28;20111;-50
2022/08/02 07:10:38;;;;;;;16.20;7.80;;;;;;;19.29;94.54;101691.38;5056128;28;20395;-52
2022/08/02 07:13:03;;;;;;;14.35;7.88;;;;;;;19.37;93.38;101691.22;5053581;28;20557;-52
2022/08/02 07:15:29;;;;;;;14.07;8.40;;;;;;;19.55;94.65;101690.72;5053324;28;20024;-50
2022/08/02 07:17:54;;;;;;;13.90;8.25;;;;;;;19.69;93.18;101694.34;5042946;28;20016;-50
2022/08/02 07:20:19;;;;;;;12.82;8.57;;;;;;;19.75;92.71;101687.28;5046741;28;20513;-52
2022/08/02 07:22:45;;;;;;;16.58;8.70;;;;;;;19.81;93.56;101680.25;5062145;28;20016;-52
2022/08/02 07:25:10;;;;;;;14.57;8.68;;;;;;;19.87;94.41;101685.66;5039644;28;20425;-51
2022/08/02 07:27:36;;;;;;;13.15;8.82;;;;;;;19.86;92.65;101683.19;5045463;28;20033;-51
2022/08/02 07:30:02;;;;;;;20.08;8.40;;;;;;;19.84;93.16;101687.97;5044641;28;20060;-50
2022/08/02 07:32:30;;;;;;;16.25;8.98;;;;;;;19.79;93.19;101683.16;5055497;28;20101;-50
2022/08/02 07:34:56;;;;;;;15.32;8.23;;;;;;;19.85;93.95;101681.50;5042831;28;20040;-51
2022/08/02 07:37:24;;;;;;;14.50;7.82;;;;;;;19.94;93.04;101673.00;5038427;28;20096;-47
2022/08/02 07:39:50;;;;;;;15.02;8.40;;;;;;;20.08;91.94;101675.75;5053135;28;20051;-51
2022/08/02 07:42:15;;;;;;;19.60;8.13;;;;;;;20.27;92.24;101672.25;5053980;28;20043;-52
2022/08/02 07:44:41;;;;;;;11.82;7.63;;;;;;;20.50;91.29;101676.44;5052955;28;20024;-50
2022/08/02 07:47:06;;;;;;;14.90;7.78;;;;;;;20.64;88.66;101674.66;5061808;28;20490;-49
2022/08/02 07:49:32;;;;;;;14.05;7.80;;;;;;;20.77;87.97;101680.06;5052297;28;20028;-51
2022/08/02 07:51:57;;;;;;;14.80;7.47;;;;;;;20.91;86.53;101685.47;5053475;28;20582;-51
2022/08/02 07:54:23;;;;;;;14.25;7.63;;;;;;;21.05;86.79;101687.16;5053418;28;20671;-52
2022/08/02 07:56:49;;;;;;;11.65;7.43;;;;;;;21.15;85.68;101681.31;5052722;28;20331;-52
2022/08/02 07:59:14;;;;;;;13.93;6.72;;;;;;;21.23;85.99;101684.63;5051279;28;20182;-50
2022/08/02 08:01:40;;;;;;;9.85;6.20;;;;;;;21.37;84.55;101677.28;5052794;28;20238;-50
2022/08/02 08:04:06;;;;;;;9.48;5.80;;;;;;;21.43;83.58;101689.19;5052980;28;20139;-50
2022/08/02 08:06:31;;;;;;;9.73;5.05;;;;;;;21.48;82.51;101686.69;5051236;28;20032;-51
2022/08/02 08:08:57;;;;;;;9.50;5.18;;;;;;;21.47;81.60;101684.19;5053028;28;20016;-51
2022/08/02 08:11:23;;;;;;;7.88;4.82;;;;;;;21.52;82.25;101685.22;5050243;28;20459;-52
2022/08/02 08:13:49;;;;;;;7.55;4.35;;;;;;;21.58;82.10;101678.09;5050640;28;20103;-52
2022/08/02 08:16:14;;;;;;;7.75;4.22;;;;;;;21.71;83.45;101669.91;5055703;28;20157;-53
2022/08/02 08:18:39;;;;;;;7.07;4.13;;;;;;;21.86;81.36;101677.78;5052969;28;20020;-51
2022/08/02 08:21:05;;;;;;;6.45;3.75;;;;;;;21.87;79.09;101674.00;5051679;28;20468;-50
2022/08/02 08:23:31;;;;;;;6.47;3.60;;;;;;;21.80;79.10;101675.91;5036041;28;20048;-52
2022/08/02 08:25:56;;;;;;;5.88;3.45;;;;;;;21.78;80.60;101673.41;5049502;28;20067;-50
2022/08/02 08:28:22;;;;;;;7.93;2.95;;;;;;;22.00;79.81;101667.69;5055461;28;20449;-51
2022/08/02 08:30:47;;;;;;;3.92;2.63;;;;;;;22.23;79.89;101667.09;5044546;28;20063;-51
2022/08/02 08:33:12;;;;;;;6.28;2.30;;;;;;;22.41;75.28;101671.03;5052916;28;20020;-51
2022/08/02 08:35:38;;;;;;;4.32;2.20;;;;;;;22.56;75.76;101678.88;5033299;28;20674;-52
2022/08/02 08:38:04;;;;;;;3.25;2.05;;;;;;;22.58;74.42;101676.78;5035083;28;20471;-50
2022/08/02 08:40:30;;;;;;;2.95;1.92;;;;;;;22.68;71.92;101675.22;5050273;28;20484;-51
2022/08/02 08:42:55;;;;;;;4.18;1.80;;;;;;;22.86;71.20;101677.16;5034226;28;20032;-52
2022/08/02 08:45:21;;;;;;;4.75;1.90;;;;;;;22.87;69.34;101675.28;5035736;28;20017;-50
2022/08/02 08:47:52;;;;;;;4.82;1.85;;;;;;;22.80;68.78;101666.31;5055146;28;20051;-50
2022/08/02 08:50:23;;;;;;;6.70;1.90;;;;;;;22.85;68.46;101680.09;5051969;28;20127;-47
2022/08/02 08:53:00;;;;;;;2.42;1.65;;;;;;;22.91;68.28;101688.22;5052243;28;20160;-47
2022/08/02 08:55:27;;;;;;;2.95;2.00;;;;;;;22.89;66.76;101673.97;5046562;28;20036;-51
2022/08/02 08:57:53;;;;;;;5.38;1.77;;;;;;;22.86;67.02;101679.03;5048952;28;20379;-51
2022/08/02 09:00:19;;;;;;;3.20;1.50;;;;;;;22.98;68.61;101670.97;5051631;28;20419;-50
2022/08/02 09:02:45;;;;;;;4.85;1.60;;;;;;;23.08;66.11;101672.19;5051730;28;20031;-51
2022/08/02 09:05:13;;;;;;;4.60;1.50;;;;;;;23.11;64.27;101691.84;5050404;28;20046;-51
2022/08/02 09:07:41;;;;;;;2.60;1.55;;;;;;;23.03;65.60;101671.13;5052188;28;20024;-52
2022/08/02 09:10:34;;;;;;;3.15;1.75;;;;;;;23.09;65.32;101682.00;5053526;28;20395;-50
2022/08/02 09:13:21;;;;;;;2.22;1.25;;;;;;;23.11;64.08;101680.94;5058218;28;20067;-52
2022/08/02 09:15:57;;;;;;;7.13;1.60;;;;;;;23.15;63.52;101676.72;5058448;28;20540;-50
2022/08/02 09:18:34;;;;;;;3.78;1.60;;;;;;;23.24;62.23;101669.91;5056241;28;20024;-52
2022/08/02 09:21:04;;;;;;;3.95;1.67;;;;;;;23.52;60.63;101672.13;5053128;28;20016;-50
2022/08/02 09:23:42;;;;;;;2.92;1.60;;;;;;;23.76;60.82;101666.78;5056581;28;20472;-51
2022/08/02 09:26:10;;;;;;;4.80;1.48;;;;;;;23.88;58.00;101656.81;5056447;28;20044;-52
2022/08/02 09:28:37;;;;;;;1.85;1.52;;;;;;;23.97;56.51;101665.53;5053673;28;20115;-51
2022/08/02 09:31:10;;;;;;;4.70;1.58;;;;;;;24.11;56.38;101668.91;5053767;28;20082;-50
2022/08/02 09:33:37;;;;;;;4.35;1.30;;;;;;;24.10;56.24;101668.06;5050354;28;20107;-47
2022/08/02 09:36:05;;;;;;;2.95;1.40;;;;;;;24.17;54.43;101668.81;5050786;28;20016;-47
2022/08/02 09:38:31;;;;;;;4.38;1.40;;;;;;;24.14;55.33;101666.53;5051759;28;20106;-58
2022/08/02 09:40:57;;;;;;;3.17;1.40;;;;;;;24.16;54.92;101669.03;5053765;28;20061;-50
2022/08/02 09:43:42;;;;;;;4.35;1.63;;;;;;;24.32;56.24;101664.78;5054425;28;20020;-47
2022/08/02 09:46:21;;;;;;;3.40;1.60;;;;;;;24.49;53.59;101679.47;5051767;28;20019;-48
2022/08/02 09:48:51;;;;;;;5.07;1.33;;;;;;;24.57;53.77;101679.13;5059013;28;20560;-48
2022/08/02 09:51:18;;;;;;;;;;;;;;;24.76;54.29;101668.97;5057631;28;20074;-48
2022/08/02 09:53:43;;;;;;;1.55;1.30;;;;;;;24.80;50.15;101682.13;5073601;28;19919;-46
2022/08/02 09:56:09;;;;;;;1.88;0.93;;;;;;;24.69;48.66;101686.53;5057107;28;20036;-48
2022/08/02 09:58:38;;;;;;;3.78;0.90;;;;;;;24.71;47.78;101681.66;5056463;28;20029;-49
2022/08/02 10:01:03;;;;;;;1.73;1.10;;;;;;;24.82;46.28;101685.50;5060275;28;20033;-49
2022/08/02 10:03:29;;;;;;;2.97;1.27;;;;;;;24.87;46.93;101686.44;5056534;28;20104;-50
2022/08/02 10:05:57;;;;;;;4.18;1.00;;;;;;;24.99;47.10;101670.03;5056464;28;20318;-50
2022/08/02 10:08:24;;;;;;;1.48;0.90;;;;;;;25.10;45.52;101669.22;5057483;28;20016;-48
2022/08/02 10:10:59;;;;;;;1.60;1.20;;;;;;;25.27;45.99;101673.97;5057476;28;20127;-50
2022/08/02 10:13:28;;;;;;;4.30;1.02;;;;;;;25.45;45.91;101671.09;5054762;28;20347;-49
2022/08/02 10:15:55;;;;;;;2.60;0.90;;;;;;;25.54;44.25;101677.03;5054966;28;20398;-49
2022/08/02 10:18:21;;;;;;;1.70;1.00;;;;;;;25.73;43.78;101668.66;5052439;28;20035;-52
2022/08/02 10:20:49;;;;;;;2.03;1.02;;;;;;;25.75;43.51;101667.34;5058405;28;20033;-50
2022/08/02 10:23:15;;;;;;;9.95;1.30;;;;;;;25.90;44.08;101671.44;5053719;28;20032;-47
2022/08/02 10:25:43;;;;;;;1.08;0.88;;;;;;;25.92;42.62;101672.88;5057080;28;20028;-51
2022/08/02 10:28:10;;;;;;;1.98;0.93;;;;;;;26.12;44.10;101660.66;5055539;28;20028;-49
2022/08/02 10:30:37;;;;;;;2.05;0.80;;;;;;;26.30;40.66;101668.66;5053375;28;20424;-52
2022/08/02 10:33:05;;;;;;;2.60;0.95;;;;;;;26.39;41.11;101667.22;5056698;28;20491;-51
2022/08/02 10:35:34;;;;;;;1.83;0.80;;;;;;;26.53;41.34;101666.88;5055205;28;20024;-52
2022/08/02 10:38:02;;;;;;;2.75;0.80;;;;;;;26.54;41.14;101657.56;5058359;28;20037;-49
2022/08/02 10:40:54;;;;;;;0.80;0.70;;;;;;;26.74;42.87;101655.19;5053367;28;20017;-50
2022/08/02 10:43:31;;;;;;;1.15;0.80;;;;;;;26.40;39.65;101666.13;5048659;28;20111;-52
2022/08/02 10:46:21;;;;;;;4.15;0.60;;;;;;;26.35;41.10;101670.69;5057395;28;20031;-47
2022/08/02 10:49:06;;;;;;;1.15;0.80;;;;;;;26.29;41.13;101667.03;5050895;28;20060;-50
2022/08/02 10:51:50;;;;;;;1.48;0.80;;;;;;;26.30;41.73;101663.19;5052059;28;20085;-50
2022/08/02 10:54:21;;;;;;;1.40;0.73;;;;;;;26.22;40.71;101664.44;5042084;28;20048;-51
2022/08/02 10:56:47;;;;;;;;;;;;;;;26.57;40.59;101657.91;5061049;28;20131;-51
2022/08/02 10:59:24;;;;;;;2.42;0.70;;;;;;;26.51;40.84;101653.44;5059440;28;19950;-50
2022/08/02 11:01:49;;;;;;;4.32;0.77;;;;;;;26.48;40.11;101659.41;5057599;28;20049;-48
2022/08/02 11:04:14;;;;;;;5.22;0.93;;;;;;;26.46;40.70;101653.34;5047046;28;20051;-50
2022/08/02 11:07:16;;;;;;;1.80;0.93;;;;;;;26.71;40.41;101660.34;5045754;28;20032;-51
2022/08/02 11:09:45;;;;;;;1.85;0.63;;;;;;;26.83;40.93;101660.25;5045414;28;20024;-52
2022/08/02 11:12:16;;;;;;;1.80;0.80;;;;;;;26.97;39.06;101661.59;5069494;28;20039;-52
2022/08/02 11:14:44;;;;;;;2.22;0.57;;;;;;;27.08;38.34;101648.84;5056227;28;20017;-49
2022/08/02 11:17:14;;;;;;;4.35;0.70;;;;;;;27.18;37.76;101657.22;5056699;28;20063;-48
2022/08/02 11:20:13;;;;;;;4.97;0.90;;;;;;;27.47;38.43;101652.41;5059077;28;20024;-52
2022/08/02 11:22:39;;;;;;;2.60;0.80;;;;;;;27.44;37.86;101646.59;5052166;28;20314;-52
2022/08/02 11:25:23;;;;;;;3.17;0.90;;;;;;;27.52;39.44;101646.16;5056249;28;20024;-48
2022/08/02 11:27:57;;;;;;;2.45;0.70;;;;;;;27.70;39.18;101650.50;5061560;28;20055;-51
2022/08/02 11:30:25;;;;;;;1.20;0.60;;;;;;;27.50;34.40;101651.09;5057903;28;20169;-50